Time;durP1;ratioP1;P1;durP2;ratioP2;P2;SDS_P1;SDS_P2;PMS_P1;PMS_P2;Temp;Humidity;BMP_temperature;BMP_pressure;BME280_temperature;BME280_humidity;BME280_pressure;Samples;Min_cycle;Max_cycle;Signal;HPM_P1;HPM_P2
2022/04/18 00:00:06;;;;;;;0.10;0.10;;;9.30;56.00;;;;;;4987863;28;20046;-70
2022/04/18 00:02:32;;;;;;;0.10;0.10;;;9.20;56.30;;;;;;4990400;28;20030;-71
2022/04/18 00:04:59;;;;;;;1.38;1.38;;;9.20;56.70;;;;;;5007268;28;20021;-70
2022/04/18 00:07:24;;;;;;;0.10;0.10;;;9.10;56.80;;;;;;5010924;28;20112;-70
2022/04/18 00:09:50;;;;;;;0.10;0.10;;;9.10;57.10;;;;;;5007131;28;20165;-70
2022/04/18 00:12:16;;;;;;;0.10;0.10;;;9.10;57.20;;;;;;5010667;28;20434;-69
2022/04/18 00:14:41;;;;;;;1.42;1.35;;;9.10;57.20;;;;;;5008603;28;20038;-70
2022/04/18 00:17:09;;;;;;;0.10;0.10;;;9.10;57.60;;;;;;5008259;28;20037;-69
2022/04/18 00:19:36;;;;;;;0.10;0.10;;;9.00;57.60;;;;;;4984664;28;20065;-69
2022/04/18 00:22:03;;;;;;;0.10;0.10;;;9.00;58.20;;;;;;5008912;28;20029;-69
2022/04/18 00:24:28;;;;;;;1.75;1.65;;;9.00;58.40;;;;;;5011267;28;20033;-71
2022/04/18 00:26:54;;;;;;;0.10;0.10;;;9.60;59.30;;;;;;5003974;28;20038;-70
2022/04/18 00:29:20;;;;;;;0.57;0.57;;;8.90;58.60;;;;;;5008161;28;20028;-69
2022/04/18 00:31:45;;;;;;;0.20;0.20;;;8.90;58.90;;;;;;5008674;28;20049;-69
2022/04/18 00:34:11;;;;;;;2.15;2.05;;;8.90;59.10;;;;;;5004106;28;20054;-69
2022/04/18 00:36:37;;;;;;;0.10;0.10;;;8.90;59.40;;;;;;5009615;28;20025;-69
2022/04/18 00:39:02;;;;;;;0.10;0.10;;;8.90;60.40;;;;;;5003144;28;20084;-69
2022/04/18 00:41:28;;;;;;;0.10;0.10;;;8.90;61.30;;;;;;5010694;28;20474;-70
2022/04/18 00:43:54;;;;;;;0.10;0.10;;;8.90;62.70;;;;;;5008453;28;20072;-72
2022/04/18 00:46:20;;;;;;;0.10;0.10;;;8.90;63.80;;;;;;5009541;28;20065;-72
2022/04/18 00:48:47;;;;;;;0.32;0.32;;;8.80;65.20;;;;;;5003444;28;20136;-70
2022/04/18 00:51:15;;;;;;;0.10;0.10;;;8.80;67.20;;;;;;5005671;28;20502;-70
2022/04/18 00:53:43;;;;;;;0.10;0.10;;;8.70;69.40;;;;;;5009026;28;20062;-70
2022/04/18 00:56:13;;;;;;;0.10;0.10;;;8.70;73.10;;;;;;4998938;28;20037;-69
2022/04/18 00:58:41;;;;;;;0.10;0.10;;;8.60;77.30;;;;;;4993969;28;20454;-70
2022/04/18 01:01:08;;;;;;;0.10;0.10;;;8.50;81.80;;;;;;5009476;28;20048;-70
2022/04/18 01:03:34;;;;;;;0.10;0.10;;;8.50;86.10;;;;;;5006599;28;20115;-70
2022/04/18 01:06:00;;;;;;;0.10;0.10;;;8.40;88.90;;;;;;5001318;28;20560;-70
2022/04/18 01:08:28;;;;;;;0.10;0.10;;;8.40;90.70;;;;;;4987336;28;20022;-70
2022/04/18 01:10:54;;;;;;;0.10;0.10;;;8.40;91.60;;;;;;5009136;28;20030;-70
2022/04/18 01:13:21;;;;;;;0.90;0.75;;;8.40;92.20;;;;;;5004655;28;20026;-70
2022/04/18 01:15:51;;;;;;;0.10;0.10;;;8.30;92.90;;;;;;5011655;28;20037;-69
2022/04/18 01:18:17;;;;;;;0.10;0.10;;;8.30;93.80;;;;;;5009991;28;20045;-69
2022/04/18 01:20:43;;;;;;;0.10;0.10;;;8.20;92.30;;;;;;5008240;28;20033;-70
2022/04/18 01:23:09;;;;;;;6.72;1.75;;;8.20;92.70;;;;;;4981813;28;20053;-69
2022/04/18 01:31:04;;;;;;;0.10;0.10;;;8.10;94.40;;;;;;4992121;28;20073;-71
2022/04/18 01:33:29;;;;;;;0.10;0.10;;;8.10;94.70;;;;;;5007337;28;20050;-71
2022/04/18 01:35:55;;;;;;;0.10;0.10;;;8.10;95.50;;;;;;5008594;28;20386;-69
2022/04/18 01:38:21;;;;;;;0.10;0.10;;;8.10;95.30;;;;;;5011277;28;20033;-70
2022/04/18 01:40:46;;;;;;;0.10;0.10;;;8.00;96.40;;;;;;4989871;28;20030;-71
2022/04/18 01:43:12;;;;;;;0.20;0.20;;;8.00;98.40;;;;;;4990540;28;20375;-70
2022/04/18 01:45:38;;;;;;;0.10;0.10;;;7.90;99.90;;;;;;5006987;28;20421;-69
2022/04/18 01:48:04;;;;;;;1.05;1.05;;;7.80;99.90;;;;;;5009178;28;20091;-70
2022/04/18 01:50:30;;;;;;;0.10;0.10;;;7.70;99.90;;;;;;5003046;28;20027;-69
2022/04/18 01:52:55;;;;;;;0.10;0.10;;;7.70;99.90;;;;;;4995561;28;20053;-69
2022/04/18 01:55:21;;;;;;;0.30;0.30;;;7.70;99.90;;;;;;5010767;28;20465;-69
2022/04/18 01:57:47;;;;;;;0.10;0.10;;;7.70;99.90;;;;;;5010107;28;20053;-70
2022/04/18 02:00:12;;;;;;;0.10;0.10;;;7.70;99.90;;;;;;5008866;28;20017;-70
2022/04/18 02:02:38;;;;;;;0.10;0.10;;;7.60;99.90;;;;;;5005685;28;20100;-71
2022/04/18 02:05:08;;;;;;;0.10;0.10;;;7.50;99.90;;;;;;5002153;28;20036;-70
2022/04/18 02:07:34;;;;;;;0.10;0.10;;;7.50;99.90;;;;;;4988332;28;20541;-69
2022/04/18 02:09:59;;;;;;;0.10;0.10;;;7.50;99.90;;;;;;4996960;28;20156;-72
2022/04/18 02:12:25;;;;;;;0.20;0.20;;;7.40;99.90;;;;;;5006328;28;20065;-69
2022/04/18 02:14:51;;;;;;;0.10;0.10;;;7.40;99.90;;;;;;5009095;28;20397;-69
2022/04/18 02:17:17;;;;;;;0.38;0.38;;;7.30;99.90;;;;;;4983132;28;20045;-69
2022/04/18 02:19:44;;;;;;;0.10;0.10;;;7.30;99.90;;;;;;5007793;28;20450;-69
2022/04/18 02:22:10;;;;;;;0.20;0.20;;;7.30;99.90;;;;;;4990661;28;20022;-69
2022/04/18 02:24:36;;;;;;;0.10;0.10;;;7.30;99.90;;;;;;5002945;28;20072;-70
2022/04/18 02:27:01;;;;;;;0.10;0.10;;;7.20;99.90;;;;;;5005287;28;20061;-70
2022/04/18 02:29:27;;;;;;;0.10;0.10;;;7.30;99.90;;;;;;5010036;28;20588;-70
2022/04/18 02:34:37;;;;;;;0.10;0.10;;;7.30;99.90;;;;;;5000387;28;20036;-71
2022/04/18 02:37:03;;;;;;;0.10;0.10;;;7.40;99.90;;;;;;4990623;28;20034;-70
2022/04/18 02:39:30;;;;;;;0.10;0.10;;;7.40;99.90;;;;;;4993765;28;20034;-69
2022/04/18 02:41:57;;;;;;;0.10;0.10;;;7.40;99.90;;;;;;5009861;28;20088;-70
2022/04/18 02:44:25;;;;;;;0.10;0.10;;;7.40;99.90;;;;;;5009783;28;20022;-69
2022/04/18 02:46:51;;;;;;;0.10;0.10;;;7.40;99.90;;;;;;5008635;28;20069;-70
2022/04/18 02:49:16;;;;;;;0.50;0.50;;;7.40;99.90;;;;;;5009235;28;20061;-70
2022/04/18 02:51:42;;;;;;;0.05;0.05;;;7.40;99.90;;;;;;5009726;28;20125;-70
2022/04/18 02:54:08;;;;;;;0.20;0.20;;;7.40;99.90;;;;;;5010022;28;20338;-69
2022/04/18 02:56:33;;;;;;;0.25;0.25;;;7.20;99.90;;;;;;5002098;28;20026;-70
2022/04/18 02:58:59;;;;;;;0.10;0.10;;;7.40;99.90;;;;;;4990133;28;20391;-70
2022/04/18 03:01:24;;;;;;;0.10;0.10;;;7.20;99.90;;;;;;5008404;28;20053;-69
2022/04/18 03:03:50;;;;;;;0.10;0.10;;;7.10;99.90;;;;;;5004321;28;20117;-70
2022/04/18 03:06:16;;;;;;;0.10;0.10;;;7.00;99.90;;;;;;5004610;28;20026;-70
2022/04/18 03:08:41;;;;;;;0.10;0.10;;;6.80;99.90;;;;;;5009760;28;20030;-70
2022/04/18 03:11:08;;;;;;;0.10;0.10;;;6.70;99.90;;;;;;5009165;28;20026;-70
2022/04/18 03:13:34;;;;;;;0.10;0.10;;;6.70;99.90;;;;;;5009733;28;20025;-70
2022/04/18 03:16:01;;;;;;;0.10;0.10;;;6.70;99.90;;;;;;5002447;28;20029;-70
2022/04/18 03:18:27;;;;;;;0.10;0.10;;;6.80;99.90;;;;;;5004404;28;20108;-70
2022/04/18 03:20:54;;;;;;;0.10;0.10;;;6.80;99.90;;;;;;4984047;28;20498;-69
2022/04/18 03:23:19;;;;;;;0.10;0.10;;;6.80;99.90;;;;;;5009502;28;20109;-69
2022/04/18 03:25:45;;;;;;;0.10;0.10;;;6.80;99.90;;;;;;5009035;28;20477;-68
2022/04/18 03:28:11;;;;;;;0.20;0.20;;;6.90;99.90;;;;;;5008668;28;20509;-69
2022/04/18 03:30:37;;;;;;;0.10;0.10;;;6.80;99.90;;;;;;5000749;28;20124;-69
2022/04/18 03:33:03;;;;;;;0.10;0.10;;;6.70;99.90;;;;;;5007352;28;20485;-69
2022/04/18 03:35:30;;;;;;;0.10;0.10;;;6.70;99.90;;;;;;5009152;28;20068;-69
2022/04/18 03:40:43;;;;;;;0.10;0.10;;;6.70;99.90;;;;;;4990512;28;20038;-69
2022/04/18 03:43:09;;;;;;;0.20;0.20;;;6.70;99.90;;;;;;4994335;28;20053;-70
2022/04/18 03:45:34;;;;;;;0.38;0.38;;;6.60;99.90;;;;;;5000978;28;20040;-69
2022/04/18 03:48:00;;;;;;;0.10;0.10;;;6.60;99.90;;;;;;5006327;28;20029;-69
2022/04/18 03:50:26;;;;;;;0.10;0.10;;;6.60;99.90;;;;;;4997571;28;20030;-69
2022/04/18 03:52:52;;;;;;;0.10;0.10;;;6.60;99.90;;;;;;5003010;28;20053;-69
2022/04/18 03:55:18;;;;;;;0.45;0.45;;;6.60;99.90;;;;;;5009258;28;20053;-69
2022/04/18 03:57:44;;;;;;;0.10;0.10;;;6.60;99.90;;;;;;4981826;28;20033;-69
2022/04/18 04:00:11;;;;;;;0.10;0.10;;;6.60;99.90;;;;;;4997867;28;20479;-69
2022/04/18 04:02:37;;;;;;;0.20;0.20;;;6.60;99.90;;;;;;4999802;28;20023;-70
2022/04/18 04:05:03;;;;;;;0.10;0.10;;;6.60;99.90;;;;;;4995398;28;20490;-70
2022/04/18 04:07:29;;;;;;;0.10;0.10;;;6.50;99.90;;;;;;5008955;28;20026;-70
2022/04/18 04:09:55;;;;;;;0.17;0.17;;;6.40;99.90;;;;;;5011874;28;20030;-70
2022/04/18 04:12:24;;;;;;;0.10;0.10;;;6.30;99.90;;;;;;5012041;28;20026;-70
2022/04/18 04:14:54;;;;;;;0.10;0.10;;;6.30;99.90;;;;;;4994371;28;20056;-70
2022/04/18 04:17:23;;;;;;;4.97;1.65;;;6.20;99.90;;;;;;5009754;28;20108;-70
2022/04/18 04:19:49;;;;;;;0.10;0.10;;;6.20;99.90;;;;;;4991447;28;20486;-68
2022/04/18 04:22:15;;;;;;;0.10;0.10;;;6.20;99.90;;;;;;5000569;28;20038;-70
2022/04/18 04:24:41;;;;;;;0.20;0.20;;;6.10;99.90;;;;;;5012339;28;20453;-70
2022/04/18 04:27:07;;;;;;;0.10;0.10;;;6.10;99.90;;;;;;5012376;28;20448;-70
2022/04/18 04:29:32;;;;;;;0.65;0.60;;;6.10;99.90;;;;;;5012295;28;20469;-70
2022/04/18 04:31:58;;;;;;;0.10;0.10;;;6.20;99.90;;;;;;5009638;28;20108;-70
2022/04/18 04:34:24;;;;;;;0.10;0.10;;;6.20;99.90;;;;;;5003992;28;20485;-70
2022/04/18 04:36:50;;;;;;;0.10;0.10;;;6.20;99.90;;;;;;5012301;28;20032;-70
2022/04/18 04:39:17;;;;;;;0.10;0.10;;;6.20;99.90;;;;;;5011528;28;20026;-70
2022/04/18 04:41:42;;;;;;;0.10;0.10;;;6.30;99.90;;;;;;5010480;28;20191;-70
2022/04/18 04:44:08;;;;;;;0.28;0.28;;;6.30;99.90;;;;;;5010247;28;20109;-70
2022/04/18 04:46:34;;;;;;;0.10;0.10;;;6.40;99.90;;;;;;5000838;28;20403;-70
2022/04/18 04:49:00;;;;;;;0.10;0.10;;;6.30;99.90;;;;;;5004530;28;20030;-70
2022/04/18 04:51:26;;;;;;;0.10;0.10;;;6.20;99.90;;;;;;4981161;28;20560;-70
2022/04/18 04:53:51;;;;;;;0.20;0.20;;;6.20;99.90;;;;;;5007918;28;20073;-70
2022/04/18 04:56:17;;;;;;;0.10;0.10;;;6.20;99.90;;;;;;5002536;28;20140;-70
2022/04/18 04:58:43;;;;;;;0.10;0.10;;;6.30;99.90;;;;;;5010838;28;20516;-69
2022/04/18 05:01:09;;;;;;;0.10;0.10;;;6.20;99.90;;;;;;5009084;28;20041;-70
2022/04/18 05:03:35;;;;;;;0.10;0.10;;;6.30;99.90;;;;;;5003118;28;20034;-69
2022/04/18 05:06:00;;;;;;;0.10;0.10;;;6.30;99.90;;;;;;5011882;28;20456;-69
2022/04/18 05:08:26;;;;;;;0.10;0.10;;;6.40;99.90;;;;;;5007434;28;20489;-71
2022/04/18 05:10:59;;;;;;;0.10;0.10;;;6.30;99.90;;;;;;5003419;28;20371;-70
2022/04/18 05:13:25;;;;;;;0.20;0.20;;;6.20;99.90;;;;;;4991936;28;20057;-69
2022/04/18 05:15:50;;;;;;;0.10;0.10;;;6.20;99.90;;;;;;5001056;28;20038;-69
2022/04/18 05:18:16;;;;;;;0.10;0.10;;;6.20;99.90;;;;;;5009417;28;20104;-69
2022/04/18 05:20:42;;;;;;;0.10;0.10;;;6.30;99.90;;;;;;5010879;28;20068;-70
2022/04/18 05:23:07;;;;;;;0.10;0.10;;;6.40;99.90;;;;;;5011279;28;20030;-70
2022/04/18 05:25:33;;;;;;;0.10;0.10;;;6.40;99.90;;;;;;5011447;28;20204;-70
2022/04/18 05:27:59;;;;;;;0.10;0.10;;;6.40;99.90;;;;;;5010740;28;20033;-70
2022/04/18 05:30:24;;;;;;;0.10;0.10;;;6.50;99.90;;;;;;5010537;28;20033;-70
2022/04/18 05:32:50;;;;;;;0.10;0.10;;;6.40;99.90;;;;;;5003236;28;20104;-71
2022/04/18 05:35:16;;;;;;;0.10;0.10;;;6.40;99.90;;;;;;5002072;28;20030;-70
2022/04/18 05:37:41;;;;;;;0.10;0.10;;;6.30;99.90;;;;;;4991563;28;20084;-69
2022/04/18 05:40:08;;;;;;;0.10;0.10;;;6.40;99.90;;;;;;5005252;28;20038;-70
2022/04/18 05:42:34;;;;;;;0.10;0.10;;;6.40;99.90;;;;;;4993670;28;20030;-70
2022/04/18 05:45:00;;;;;;;0.10;0.10;;;6.40;99.90;;;;;;5008065;28;20022;-71
2022/04/18 05:47:25;;;;;;;0.10;0.10;;;6.40;99.90;;;;;;5002311;28;20109;-70
2022/04/18 05:49:51;;;;;;;0.10;0.10;;;6.40;99.90;;;;;;5010174;28;20500;-70
2022/04/18 05:52:16;;;;;;;0.10;0.10;;;6.40;99.90;;;;;;5009804;28;20033;-70
2022/04/18 05:54:42;;;;;;;0.10;0.10;;;7.50;99.90;;;;;;5006723;28;20104;-70
2022/04/18 05:57:08;;;;;;;0.10;0.10;;;6.40;99.90;;;;;;5004501;28;20041;-70
2022/04/18 05:59:33;;;;;;;0.10;0.10;;;6.50;99.90;;;;;;5008295;28;20452;-70
2022/04/18 06:01:59;;;;;;;0.57;0.57;;;6.60;99.90;;;;;;4985674;28;20030;-70
2022/04/18 06:04:25;;;;;;;0.10;0.10;;;6.60;99.90;;;;;;4998070;28;20034;-70
2022/04/18 06:06:51;;;;;;;0.10;0.10;;;6.70;99.90;;;;;;4990988;28;20117;-70
2022/04/18 06:09:16;;;;;;;0.38;0.38;;;6.60;99.90;;;;;;4999897;28;20030;-70
2022/04/18 06:11:42;;;;;;;0.10;0.10;;;6.90;99.90;;;;;;5009112;28;20022;-70
2022/04/18 06:14:10;;;;;;;0.10;0.10;;;6.80;99.90;;;;;;5010551;28;20096;-70
2022/04/18 06:16:36;;;;;;;0.35;0.35;;;6.80;99.90;;;;;;5008761;28;20038;-70
2022/04/18 06:19:02;;;;;;;0.10;0.10;;;6.90;99.90;;;;;;4997238;28;20513;-70
2022/04/18 06:21:27;;;;;;;0.30;0.30;;;6.90;99.90;;;;;;4972612;28;20026;-70
2022/04/18 06:23:53;;;;;;;0.10;0.10;;;6.90;99.90;;;;;;4990242;28;20668;-69
2022/04/18 06:26:18;;;;;;;0.10;0.10;;;7.00;99.90;;;;;;5006445;28;20018;-70
2022/04/18 06:28:44;;;;;;;0.10;0.10;;;7.10;99.90;;;;;;5006024;28;20032;-70
2022/04/18 06:31:10;;;;;;;0.10;0.10;;;7.10;99.90;;;;;;5003289;28;20076;-71
2022/04/18 06:33:35;;;;;;;0.10;0.10;;;7.20;99.90;;;;;;5000355;28;20041;-71
2022/04/18 06:36:02;;;;;;;0.10;0.10;;;7.30;99.90;;;;;;4990204;28;20081;-71
2022/04/18 06:41:02;;;;;;;0.10;0.10;;;7.30;99.90;;;;;;4978775;28;20109;-63
2022/04/18 06:43:28;;;;;;;2.35;2.17;;;7.50;99.90;;;;;;4979880;28;20031;-64
2022/04/18 06:45:53;;;;;;;0.10;0.10;;;7.70;99.90;;;;;;4988102;28;20104;-64
2022/04/18 06:48:19;;;;;;;0.10;0.10;;;7.70;99.90;;;;;;4983133;28;20049;-64
2022/04/18 06:50:45;;;;;;;0.10;0.10;;;7.90;99.90;;;;;;4973035;28;20114;-64
2022/04/18 06:53:12;;;;;;;0.10;0.10;;;8.00;99.90;;;;;;4970935;28;20031;-64
2022/04/18 06:58:23;;;;;;;0.10;0.10;;;8.20;99.90;;;;;;4985245;28;20505;-64
2022/04/18 07:00:49;;;;;;;2.17;1.45;;;8.30;99.90;;;;;;4981070;28;20353;-66
2022/04/18 07:03:15;;;;;;;0.10;0.10;;;8.30;99.90;;;;;;4980670;28;20500;-66
2022/04/18 07:05:41;;;;;;;0.10;0.10;;;8.40;99.90;;;;;;4975677;28;20030;-65
2022/04/18 07:08:07;;;;;;;0.10;0.10;;;8.40;99.90;;;;;;4982948;28;20165;-64
2022/04/18 07:10:33;;;;;;;0.10;0.10;;;8.60;99.90;;;;;;4986335;28;20062;-65
2022/04/18 07:12:59;;;;;;;0.10;0.10;;;8.70;99.90;;;;;;4978253;28;20088;-63
2022/04/18 07:15:24;;;;;;;0.10;0.10;;;8.70;99.90;;;;;;4983684;28;20056;-64
2022/04/18 07:17:50;;;;;;;0.10;0.10;;;8.80;99.90;;;;;;4984923;28;20086;-63
2022/04/18 07:20:15;;;;;;;0.10;0.10;;;8.90;99.90;;;;;;4982392;28;20121;-64
2022/04/18 07:22:41;;;;;;;0.10;0.10;;;8.90;99.90;;;;;;4979428;28;20061;-64
2022/04/18 07:25:08;;;;;;;0.10;0.10;;;9.00;99.90;;;;;;4986900;28;20027;-65
2022/04/18 07:27:34;;;;;;;0.10;0.10;;;9.00;99.90;;;;;;4986326;28;20105;-64
2022/04/18 07:29:59;;;;;;;0.10;0.10;;;9.20;99.90;;;;;;4976464;28;20582;-64
2022/04/18 07:32:25;;;;;;;0.10;0.10;;;9.30;99.90;;;;;;4985443;28;20034;-65
2022/04/18 07:34:51;;;;;;;0.10;0.10;;;9.40;99.90;;;;;;4989635;28;20022;-64
2022/04/18 07:37:16;;;;;;;0.10;0.10;;;9.50;99.90;;;;;;4989210;28;20034;-64
2022/04/18 07:39:42;;;;;;;0.20;0.20;;;9.70;99.90;;;;;;4988023;28;20030;-62
2022/04/18 07:42:07;;;;;;;0.50;0.50;;;9.70;99.90;;;;;;4973530;28;20137;-63
2022/04/18 07:44:33;;;;;;;0.10;0.10;;;9.80;99.70;;;;;;4980635;28;20022;-64
2022/04/18 07:46:59;;;;;;;0.10;0.10;;;9.90;98.90;;;;;;4987980;28;20022;-64
2022/04/18 07:49:25;;;;;;;0.10;0.10;;;9.90;98.70;;;;;;4989633;28;20049;-64
2022/04/18 07:51:50;;;;;;;0.10;0.10;;;9.90;97.60;;;;;;4974925;28;20482;-64
2022/04/18 07:54:19;;;;;;;0.10;0.10;;;10.00;96.90;;;;;;4977527;28;20038;-65
2022/04/18 07:56:45;;;;;;;0.10;0.10;;;10.10;96.70;;;;;;4992292;28;20034;-64
2022/04/18 07:59:11;;;;;;;0.10;0.10;;;9.80;95.30;;;;;;4984176;28;20026;-64
2022/04/18 08:01:37;;;;;;;0.17;0.17;;;10.40;94.90;;;;;;4989881;28;20034;-64
2022/04/18 08:04:04;;;;;;;0.20;0.20;;;10.50;93.80;;;;;;4978219;28;20034;-64
2022/04/18 08:06:30;;;;;;;0.22;0.22;;;10.50;93.40;;;;;;4988100;28;20027;-65
2022/04/18 08:08:56;;;;;;;0.20;0.20;;;10.60;93.00;;;;;;4987694;28;20030;-65
2022/04/18 08:11:22;;;;;;;0.40;0.40;;;10.80;92.00;;;;;;4982096;28;20042;-64
2022/04/18 08:13:49;;;;;;;0.10;0.10;;;10.80;91.60;;;;;;4972541;28;20379;-63
2022/04/18 08:16:14;;;;;;;0.10;0.10;;;10.90;91.10;;;;;;4990305;28;20490;-65
2022/04/18 08:18:44;;;;;;;0.10;0.10;;;11.00;91.00;;;;;;4974876;28;20043;-64
2022/04/18 08:21:11;;;;;;;0.30;0.30;;;11.10;90.40;;;;;;4973260;28;20031;-65
2022/04/18 08:23:37;;;;;;;0.10;0.10;;;11.20;89.30;;;;;;4974628;28;20022;-64
2022/04/18 08:26:04;;;;;;;0.10;0.10;;;11.20;88.20;;;;;;4973392;28;20172;-66
2022/04/18 08:28:30;;;;;;;0.70;0.70;;;11.30;87.10;;;;;;4985834;28;20113;-65
2022/04/18 08:30:56;;;;;;;0.10;0.10;;;11.30;85.90;;;;;;4984447;28;20105;-65
2022/04/18 08:33:23;;;;;;;0.10;0.10;;;11.30;85.70;;;;;;4990862;28;20033;-65
2022/04/18 08:35:48;;;;;;;0.20;0.20;;;11.30;84.80;;;;;;4992618;28;20062;-64
2022/04/18 08:38:14;;;;;;;0.10;0.10;;;11.40;84.50;;;;;;4996440;28;20054;-64
2022/04/18 08:40:44;;;;;;;0.20;0.20;;;11.50;83.50;;;;;;4984637;28;20141;-64
2022/04/18 08:43:10;;;;;;;0.10;0.10;;;11.60;83.20;;;;;;4985023;28;20030;-64
2022/04/18 08:45:38;;;;;;;0.10;0.10;;;11.60;82.90;;;;;;4983026;28;20056;-66
2022/04/18 08:53:35;;;;;;;0.10;0.10;;;12.10;81.40;;;;;;4982056;28;20439;-64
2022/04/18 08:56:01;;;;;;;0.10;0.10;;;12.20;79.10;;;;;;4986165;28;20545;-65
2022/04/18 08:58:28;;;;;;;0.10;0.10;;;12.30;78.00;;;;;;4986303;28;20037;-64
2022/04/18 09:00:59;;;;;;;0.10;0.10;;;12.40;77.70;;;;;;4978412;28;20066;-65
2022/04/18 09:03:24;;;;;;;0.73;0.73;;;12.60;76.20;;;;;;4977061;28;20034;-64
2022/04/18 09:06:05;;;;;;;0.10;0.10;;;12.70;76.00;;;;;;4983558;28;20061;-65
2022/04/18 09:08:34;;;;;;;0.10;0.10;;;12.90;75.60;;;;;;4987617;28;20216;-64
2022/04/18 09:10:59;;;;;;;0.10;0.10;;;12.80;72.90;;;;;;4985297;28;20030;-65
2022/04/18 09:13:25;;;;;;;0.10;0.10;;;12.70;73.30;;;;;;4986648;28;20537;-63
2022/04/18 09:15:51;;;;;;;0.20;0.20;;;12.70;72.40;;;;;;4990463;28;20041;-63
2022/04/18 09:18:21;;;;;;;0.10;0.10;;;13.00;71.40;;;;;;4988555;28;20458;-62
2022/04/18 09:20:53;;;;;;;0.10;0.10;;;13.00;71.40;;;;;;4987229;28;20080;-62
2022/04/18 09:23:19;;;;;;;0.10;0.10;;;13.10;70.60;;;;;;4985401;28;20161;-65
2022/04/18 09:25:44;;;;;;;0.10;0.10;;;13.30;69.80;;;;;;4984554;28;20490;-65
2022/04/18 09:28:11;;;;;;;0.10;0.10;;;13.30;69.70;;;;;;4986947;28;20593;-66
2022/04/18 09:30:37;;;;;;;0.90;0.90;;;13.50;68.70;;;;;;4988475;28;20030;-63
2022/04/18 09:33:07;;;;;;;0.10;0.10;;;13.60;67.80;;;;;;4987471;28;20030;-63
2022/04/18 09:35:33;;;;;;;0.13;0.13;;;13.70;67.10;;;;;;4984413;28;20490;-64
2022/04/18 09:38:11;;;;;;;0.10;0.10;;;13.70;66.40;;;;;;4989494;28;20054;-63
2022/04/18 09:40:37;;;;;;;0.10;0.10;;;13.80;65.10;;;;;;4987208;28;20038;-64
2022/04/18 09:43:03;;;;;;;0.10;0.10;;;13.90;64.20;;;;;;4986931;28;20509;-64
2022/04/18 09:45:29;;;;;;;0.10;0.10;;;13.60;63.50;;;;;;4983545;28;20030;-65
2022/04/18 09:48:01;;;;;;;0.10;0.10;;;13.80;62.90;;;;;;4989093;28;20046;-65
2022/04/18 09:53:16;;;;;;;0.10;0.10;;;13.90;62.70;;;;;;4984731;28;20621;-66
2022/04/18 09:55:50;;;;;;;0.10;0.10;;;14.00;62.10;;;;;;4982036;28;20034;-64
2022/04/18 09:58:19;;;;;;;0.10;0.10;;;14.00;60.20;;;;;;4975492;28;20045;-66
2022/04/18 10:00:46;;;;;;;0.10;0.10;;;14.00;59.20;;;;;;4980654;28;20127;-66
2022/04/18 10:03:12;;;;;;;0.10;0.10;;;14.20;59.00;;;;;;4975557;28;20574;-65
2022/04/18 10:05:40;;;;;;;0.10;0.10;;;14.40;58.60;;;;;;4982103;28;20033;-66
2022/04/18 10:08:05;;;;;;;0.10;0.10;;;14.30;58.70;;;;;;4990102;28;20497;-66
2022/04/18 10:10:35;;;;;;;0.10;0.10;;;14.40;58.20;;;;;;4981351;28;20026;-65
2022/04/18 10:13:04;;;;;;;0.10;0.10;;;14.60;57.90;;;;;;4972528;28;20076;-67
2022/04/18 10:15:31;;;;;;;0.10;0.10;;;14.50;57.30;;;;;;4973094;28;20494;-66
2022/04/18 10:18:01;;;;;;;0.10;0.10;;;14.60;57.20;;;;;;4978842;28;20037;-66
2022/04/18 10:20:46;;;;;;;2.65;2.40;;;14.70;57.60;;;;;;4976457;28;20101;-65
2022/04/18 10:23:26;;;;;;;0.10;0.10;;;14.70;56.70;;;;;;4973488;28;20030;-68
2022/04/18 10:26:13;;;;;;;0.10;0.10;;;14.70;56.90;;;;;;4973196;28;20216;-64
2022/04/18 10:28:42;;;;;;;0.10;0.10;;;14.70;56.70;;;;;;4973020;28;20030;-66
2022/04/18 10:31:17;;;;;;;0.10;0.10;;;14.80;56.90;;;;;;4974840;28;20528;-65
2022/04/18 10:33:44;;;;;;;0.10;0.10;;;14.90;56.60;;;;;;4972418;28;20104;-65
2022/04/18 10:36:10;;;;;;;0.10;0.10;;;14.90;55.50;;;;;;4975928;28;20030;-66
2022/04/18 10:38:37;;;;;;;0.10;0.10;;;14.90;55.60;;;;;;4972884;28;20081;-64
2022/04/18 10:41:16;;;;;;;0.10;0.10;;;14.80;54.90;;;;;;4978476;28;20033;-66
2022/04/18 10:43:58;;;;;;;0.10;0.10;;;14.90;55.70;;;;;;4972224;28;20089;-65
2022/04/18 10:46:24;;;;;;;0.10;0.10;;;15.10;55.30;;;;;;4978239;28;20041;-65
2022/04/18 10:49:04;;;;;;;0.10;0.10;;;15.10;54.50;;;;;;4975672;28;20018;-65
2022/04/18 10:51:40;;;;;;;0.10;0.10;;;15.10;54.80;;;;;;4972690;28;20037;-67
2022/04/18 10:54:13;;;;;;;0.10;0.10;;;15.20;54.50;;;;;;4970914;28;20026;-67
2022/04/18 10:56:49;;;;;;;0.10;0.10;;;15.30;54.50;;;;;;4973066;28;20157;-65
2022/04/18 10:59:17;;;;;;;0.10;0.10;;;15.40;53.90;;;;;;4976869;28;20093;-64
2022/04/18 11:01:42;;;;;;;0.10;0.10;;;15.50;53.50;;;;;;4972391;28;20505;-64
2022/04/18 11:04:09;;;;;;;0.00;0.00;;;15.50;53.20;;;;;;4974008;28;20033;-64
2022/04/18 11:06:38;;;;;;;0.10;0.10;;;15.40;53.00;;;;;;4975295;28;20482;-65
2022/04/18 11:09:09;;;;;;;0.38;0.38;;;15.60;53.20;;;;;;4976149;28;20034;-65
2022/04/18 11:11:36;;;;;;;0.10;0.10;;;15.70;53.10;;;;;;4974519;28;20037;-64
2022/04/18 11:14:13;;;;;;;0.10;0.10;;;15.60;53.10;;;;;;4975401;28;20623;-63
2022/04/18 11:16:44;;;;;;;0.10;0.10;;;15.60;52.80;;;;;;4973905;28;20172;-65
2022/04/18 11:19:16;;;;;;;0.10;0.10;;;15.50;52.60;;;;;;4977400;28;21701;-65
2022/04/18 11:21:58;;;;;;;0.10;0.10;;;15.60;52.50;;;;;;4977353;28;20413;-64
2022/04/18 11:24:44;;;;;;;0.10;0.10;;;15.70;52.90;;;;;;4975674;28;20532;-65
2022/04/18 11:27:11;;;;;;;0.10;0.10;;;15.90;52.30;;;;;;4981352;28;20026;-65
2022/04/18 11:29:39;;;;;;;0.35;0.35;;;16.00;51.50;;;;;;4977524;28;20046;-64
2022/04/18 11:32:07;;;;;;;0.10;0.10;;;16.10;51.70;;;;;;4982920;28;20366;-63
2022/04/18 11:34:34;;;;;;;0.17;0.17;;;16.00;51.50;;;;;;4978851;28;20026;-64
2022/04/18 11:37:03;;;;;;;0.30;0.30;;;16.00;51.60;;;;;;4976177;28;20108;-65
2022/04/18 11:39:49;;;;;;;1.00;0.90;;;15.90;50.90;;;;;;4976667;28;20402;-64
2022/04/18 11:42:23;;;;;;;0.10;0.10;;;15.80;51.50;;;;;;4979676;28;20057;-64
2022/04/18 11:44:50;;;;;;;0.10;0.10;;;15.80;50.30;;;;;;4975305;28;20061;-62
2022/04/18 11:47:20;;;;;;;0.10;0.10;;;15.80;50.90;;;;;;4977909;28;20101;-63
2022/04/18 11:49:46;;;;;;;0.10;0.10;;;15.70;50.80;;;;;;4975394;28;20477;-64
2022/04/18 11:52:24;;;;;;;0.10;0.10;;;15.80;50.90;;;;;;4977116;28;20027;-63
2022/04/18 11:54:54;;;;;;;0.10;0.10;;;15.80;50.90;;;;;;4981809;28;20022;-65
2022/04/18 11:57:20;;;;;;;0.10;0.10;;;15.90;50.50;;;;;;4976349;28;20082;-65
2022/04/18 11:59:47;;;;;;;0.10;0.10;;;15.90;50.50;;;;;;4976461;28;20537;-65
2022/04/18 12:07:46;;;;;;;0.10;0.10;;;15.90;49.80;;;;;;4978921;28;20073;-65
2022/04/18 12:10:35;;;;;;;0.10;0.10;;;16.10;50.00;;;;;;4977038;28;20470;-65
2022/04/18 12:13:05;;;;;;;0.10;0.10;;;16.30;49.40;;;;;;4974718;28;20125;-64
2022/04/18 12:15:30;;;;;;;0.10;0.10;;;16.20;49.10;;;;;;4974190;28;20026;-65
2022/04/18 12:17:57;;;;;;;0.10;0.10;;;16.20;49.80;;;;;;4973272;28;20038;-65
2022/04/18 12:20:28;;;;;;;0.10;0.10;;;16.50;49.70;;;;;;4974487;28;20314;-65
2022/04/18 12:22:59;;;;;;;0.10;0.10;;;16.40;49.60;;;;;;4974412;28;20038;-67
2022/04/18 12:25:33;;;;;;;0.10;0.10;;;16.50;49.40;;;;;;4972666;28;20060;-65
2022/04/18 12:28:03;;;;;;;0.10;0.10;;;16.50;48.80;;;;;;4973587;28;20532;-65
2022/04/18 12:30:29;;;;;;;0.10;0.10;;;16.40;49.20;;;;;;4972102;28;20039;-64
2022/04/18 12:32:54;;;;;;;0.10;0.10;;;16.30;48.80;;;;;;4974305;28;20042;-65
2022/04/18 12:35:43;;;;;;;0.38;0.38;;;16.30;49.10;;;;;;4973277;28;20034;-66
2022/04/18 12:38:12;;;;;;;0.00;0.00;;;16.60;48.80;;;;;;4972928;28;22146;-64
2022/04/18 12:40:44;;;;;;;0.10;0.10;;;17.00;48.30;;;;;;4998307;23;20056;-66
2022/04/18 12:43:15;;;;;;;0.10;0.10;;;17.30;47.90;;;;;;4989649;28;20140;-65
2022/04/18 12:45:48;;;;;;;0.10;0.10;;;17.80;47.10;;;;;;4993433;28;20033;-66
2022/04/18 12:48:20;;;;;;;0.10;0.10;;;18.90;46.00;;;;;;4986960;28;20041;-68
2022/04/18 12:50:45;;;;;;;0.10;0.10;;;20.20;44.80;;;;;;4990281;28;20049;-65
2022/04/18 12:53:11;;;;;;;0.10;0.10;;;21.50;42.70;;;;;;4992678;28;20477;-68
2022/04/18 12:55:37;;;;;;;0.00;0.00;;;22.60;40.70;;;;;;4990471;28;20038;-68
2022/04/18 12:58:13;;;;;;;0.00;0.00;;;23.90;39.60;;;;;;5000777;28;20034;-66
2022/04/18 13:00:38;;;;;;;0.00;0.00;;;24.10;38.50;;;;;;4995846;28;20030;-69
2022/04/18 13:03:08;;;;;;;0.00;0.00;;;24.00;38.00;;;;;;4998248;28;20081;-67
2022/04/18 13:05:41;;;;;;;0.00;0.00;;;24.60;37.30;;;;;;4998589;28;20026;-68
2022/04/18 13:08:07;;;;;;;0.00;0.00;;;25.50;36.60;;;;;;5006457;28;20022;-66
2022/04/18 13:10:35;;;;;;;0.00;0.00;;;26.20;35.50;;;;;;5005324;28;20401;-68
2022/04/18 13:13:19;;;;;;;0.00;0.00;;;25.90;35.10;;;;;;4999687;28;20026;-66
2022/04/18 13:15:46;;;;;;;0.00;0.00;;;26.30;34.50;;;;;;4994291;28;20092;-66
2022/04/18 13:18:24;;;;;;;0.00;0.00;;;26.50;34.40;;;;;;4999805;28;20041;-68
2022/04/18 13:20:50;;;;;;;0.00;0.00;;;26.50;33.30;;;;;;5004502;28;20030;-66
2022/04/18 13:23:15;;;;;;;0.10;0.10;;;26.40;33.50;;;;;;4996096;28;20081;-67